Time;durP1;ratioP1;P1;durP2;ratioP2;P2;SDS_P1;SDS_P2;PMS_P1;PMS_P2;Temp;Humidity;BMP_temperature;BMP_pressure;BME280_temperature;BME280_humidity;BME280_pressure;Samples;Min_cycle;Max_cycle;Signal;HPM_P1;HPM_P2
2022/04/17 00:01:43;;;;;;;1.53;1.40;;;22.10;40.30;;;;;;5040068;28;90472;-73
2022/04/17 00:04:14;;;;;;;1.13;1.00;;;22.10;40.30;;;;;;5042718;27;88845;-73
2022/04/17 00:06:42;;;;;;;2.07;1.50;;;22.10;40.30;;;;;;5041177;28;88389;-74
2022/04/17 00:09:11;;;;;;;1.70;0.93;;;22.10;40.30;;;;;;5039763;27;89455;-74
2022/04/17 00:11:41;;;;;;;1.07;0.97;;;22.10;40.30;;;;;;5041175;28;88558;-72
2022/04/17 00:14:11;;;;;;;1.47;1.00;;;22.10;40.30;;;;;;5039429;27;88576;-73
2022/04/17 00:16:40;;;;;;;1.53;1.17;;;22.10;40.30;;;;;;5041301;28;88462;-73
2022/04/17 00:19:08;;;;;;;2.17;1.30;;;22.10;40.30;;;;;;5041095;27;89621;-73
2022/04/17 00:21:36;;;;;;;1.00;0.80;;;22.10;40.30;;;;;;5041546;28;90116;-73
2022/04/17 00:24:05;;;;;;;2.07;1.20;;;22.10;40.90;;;;;;5047461;27;90112;-73
2022/04/17 00:26:33;;;;;;;1.70;1.30;;;22.10;40.30;;;;;;5040463;27;88703;-74
2022/04/17 00:29:01;;;;;;;1.70;1.40;;;22.10;40.30;;;;;;5040612;27;89482;-73
2022/04/17 00:31:30;;;;;;;1.43;1.20;;;22.10;40.30;;;;;;5042767;28;88853;-73
2022/04/17 00:33:58;;;;;;;1.67;1.00;;;22.10;40.20;;;;;;5043441;27;88986;-74
2022/04/17 00:36:26;;;;;;;1.43;1.00;;;22.00;40.20;;;;;;5042560;27;88598;-73
2022/04/17 00:38:54;;;;;;;3.17;1.30;;;22.10;40.30;;;;;;5053293;27;89562;-73
2022/04/17 00:41:22;;;;;;;3.40;1.17;;;22.00;40.20;;;;;;5061240;27;89131;-73
2022/04/17 00:43:50;;;;;;;1.53;1.37;;;22.00;40.20;;;;;;5051366;27;88512;-73
2022/04/17 00:46:18;;;;;;;1.73;1.27;;;22.00;40.10;;;;;;5041428;27;88904;-74
2022/04/17 00:48:47;;;;;;;1.27;1.10;;;22.00;40.10;;;;;;5047183;27;89715;-74
2022/04/17 00:51:16;;;;;;;2.50;1.30;;;22.00;40.20;;;;;;5059348;27;89240;-73
2022/04/17 00:53:45;;;;;;;1.70;0.93;;;22.00;40.10;;;;;;5049075;27;88465;-74
2022/04/17 00:56:13;;;;;;;2.60;1.27;;;22.00;40.10;;;;;;5060573;27;88147;-74
2022/04/17 00:58:44;;;;;;;1.90;1.13;;;21.90;40.00;;;;;;5050949;27;89888;-73
2022/04/17 01:01:14;;;;;;;1.10;1.03;;;22.00;40.10;;;;;;5060944;27;88970;-73
2022/04/17 01:03:42;;;;;;;1.13;1.03;;;22.00;40.10;;;;;;5051921;27;88404;-74
2022/04/17 01:06:11;;;;;;;1.13;1.00;;;22.00;40.10;;;;;;5040735;27;88639;-73
2022/04/17 01:08:41;;;;;;;1.67;1.23;;;22.00;40.10;;;;;;5040666;27;90808;-73
2022/04/17 01:11:09;;;;;;;2.43;0.97;;;22.00;40.10;;;;;;5040327;27;89018;-73
2022/04/17 01:13:38;;;;;;;1.20;0.90;;;21.90;40.00;;;;;;5041503;27;88406;-73
2022/04/17 01:16:06;;;;;;;1.43;1.33;;;22.00;40.10;;;;;;5041196;27;88472;-73
2022/04/17 01:18:55;;;;;;;1.20;1.10;;;21.90;40.00;;;;;;5047039;27;90178;-73
2022/04/17 01:21:25;;;;;;;1.50;1.30;;;21.90;40.00;;;;;;5058197;27;90354;-73
2022/04/17 01:26:58;;;;;;;2.30;1.20;;;21.90;40.00;;;;;;5061254;27;88400;-73
2022/04/17 01:29:28;;;;;;;1.03;0.93;;;21.90;40.00;;;;;;5046036;27;91857;-73
2022/04/17 01:31:56;;;;;;;2.97;1.40;;;21.90;40.00;;;;;;5051309;27;90260;-74
2022/04/17 01:34:24;;;;;;;2.57;1.10;;;21.90;40.00;;;;;;5059150;27;88422;-74
2022/04/17 01:36:54;;;;;;;1.47;1.07;;;21.90;40.00;;;;;;5059559;27;88607;-74
2022/04/17 01:39:22;;;;;;;1.40;1.30;;;21.90;40.00;;;;;;5046223;27;89627;-73
2022/04/17 01:41:50;;;;;;;4.20;1.27;;;21.90;40.00;;;;;;5040089;28;88939;-73
2022/04/17 01:44:18;;;;;;;2.33;1.30;;;21.90;40.00;;;;;;5040241;27;88935;-73
2022/04/17 01:46:47;;;;;;;2.60;1.30;;;21.90;40.00;;;;;;5040528;28;88483;-74
2022/04/17 01:49:16;;;;;;;1.50;0.90;;;21.80;39.90;;;;;;5040844;27;93724;-73
2022/04/17 01:51:45;;;;;;;1.60;1.13;;;21.80;39.90;;;;;;5056687;27;88427;-73
2022/04/17 01:54:15;;;;;;;1.73;1.20;;;21.80;39.90;;;;;;5059952;27;88318;-73
2022/04/17 01:56:44;;;;;;;2.40;1.40;;;21.80;39.80;;;;;;5043169;27;88453;-73
2022/04/17 01:59:14;;;;;;;1.70;1.10;;;21.80;39.80;;;;;;5050638;27;89406;-73
2022/04/17 02:01:42;;;;;;;4.43;1.40;;;21.80;39.80;;;;;;5058960;27;89002;-73
2022/04/17 02:04:10;;;;;;;2.67;1.23;;;21.80;39.80;;;;;;5060204;27;88942;-73
2022/04/17 02:06:40;;;;;;;8.17;1.20;;;21.80;39.90;;;;;;5062755;27;88658;-73
2022/04/17 02:09:08;;;;;;;1.83;1.43;;;21.80;39.80;;;;;;5050528;27;89606;-74
2022/04/17 02:11:38;;;;;;;1.03;0.93;;;21.70;39.70;;;;;;5040931;27;89214;-73
2022/04/17 02:14:06;;;;;;;1.30;1.10;;;21.90;39.90;;;;;;5048684;27;89741;-74
2022/04/17 02:16:34;;;;;;;2.20;1.23;;;21.70;39.70;;;;;;5061780;27;88581;-74
2022/04/17 02:19:02;;;;;;;1.60;1.30;;;21.70;39.70;;;;;;5058307;27;89522;-73
2022/04/17 02:21:30;;;;;;;1.50;1.30;;;21.70;39.70;;;;;;5060682;27;90048;-73
2022/04/17 02:24:00;;;;;;;2.13;1.37;;;21.70;39.70;;;;;;5046248;27;88864;-73
2022/04/17 02:26:28;;;;;;;1.40;1.20;;;21.70;39.70;;;;;;5039854;27;88357;-74
2022/04/17 02:28:57;;;;;;;2.10;1.23;;;21.70;39.70;;;;;;5047624;27;89566;-74
2022/04/17 02:31:25;;;;;;;3.77;1.30;;;21.70;39.60;;;;;;5060009;27;90048;-73
2022/04/17 02:33:53;;;;;;;1.00;0.73;;;21.70;39.60;;;;;;5059190;27;88924;-73
2022/04/17 02:36:22;;;;;;;2.07;1.20;;;21.60;39.50;;;;;;5057020;27;88734;-73
2022/04/17 02:38:49;;;;;;;1.87;1.30;;;21.60;39.50;;;;;;5045867;27;89306;-73
2022/04/17 02:41:17;;;;;;;1.30;1.20;;;21.60;39.50;;;;;;5059432;27;90217;-73
2022/04/17 02:43:45;;;;;;;1.27;1.10;;;21.70;39.60;;;;;;5054702;27;88545;-73
2022/04/17 02:47:42;;;;;;;1.47;1.17;;;21.60;39.50;;;;;;5040121;27;88557;-74
2022/04/17 02:49:02;;;;;;;1.23;1.07;;;21.70;39.60;;;;;;5039725;27;89454;-73
2022/04/17 02:51:31;;;;;;;2.73;1.73;;;21.60;40.10;;;;;;5038909;28;89009;-74
2022/04/17 02:53:58;;;;;;;1.73;1.40;;;21.60;39.40;;;;;;5045412;27;88359;-73
2022/04/17 02:56:27;;;;;;;1.43;1.13;;;21.60;39.50;;;;;;5052681;27;88701;-73
2022/04/17 02:58:54;;;;;;;3.17;1.43;;;21.60;40.10;;;;;;5043205;27;89368;-72
2022/04/17 03:06:56;;;;;;;1.70;1.23;;;21.60;39.40;;;;;;5039932;27;88454;-74
2022/04/17 03:09:24;;;;;;;1.30;1.10;;;21.60;39.40;;;;;;5040390;27;90743;-73
2022/04/17 03:11:52;;;;;;;2.27;1.30;;;21.50;39.30;;;;;;5039497;27;90026;-73
2022/04/17 03:14:20;;;;;;;1.83;1.27;;;21.60;39.40;;;;;;5042430;27;88168;-73
2022/04/17 03:16:49;;;;;;;1.23;1.10;;;21.50;39.30;;;;;;5050895;27;88595;-75
2022/04/17 03:19:17;;;;;;;1.63;1.00;;;21.60;39.40;;;;;;5049739;27;90612;-73
2022/04/17 03:21:45;;;;;;;1.73;1.63;;;21.50;39.30;;;;;;5043560;27;89377;-74
2022/04/17 03:24:15;;;;;;;2.30;1.53;;;21.50;39.30;;;;;;5043343;27;88419;-73
2022/04/17 03:26:43;;;;;;;1.93;1.63;;;21.50;39.30;;;;;;5050319;27;88879;-73
2022/04/17 03:29:11;;;;;;;1.10;1.07;;;21.50;39.20;;;;;;5054707;27;89662;-74
2022/04/17 03:31:39;;;;;;;1.63;1.30;;;21.50;39.20;;;;;;5040843;27;89044;-73
2022/04/17 03:34:08;;;;;;;1.57;1.37;;;21.50;39.90;;;;;;5041708;27;88536;-74
2022/04/17 03:36:38;;;;;;;2.60;1.33;;;21.50;39.20;;;;;;5051333;27;88651;-73
2022/04/17 03:39:06;;;;;;;2.47;1.73;;;21.50;39.20;;;;;;5062494;27;90814;-73
2022/04/17 03:41:34;;;;;;;3.53;1.97;;;21.50;39.20;;;;;;5062751;27;90352;-73
2022/04/17 03:44:04;;;;;;;6.20;1.20;;;21.50;39.20;;;;;;5057326;27;90008;-74
2022/04/17 03:46:33;;;;;;;1.97;1.60;;;21.50;39.20;;;;;;5030595;27;88592;-74
2022/04/17 03:49:01;;;;;;;2.50;1.40;;;21.40;39.10;;;;;;5055051;27;90644;-74
2022/04/17 03:51:30;;;;;;;3.30;1.97;;;21.40;39.10;;;;;;5043541;27;90039;-73
2022/04/17 03:53:58;;;;;;;1.83;1.30;;;21.40;39.10;;;;;;5021943;28;89772;-73
2022/04/17 03:56:26;;;;;;;1.63;1.50;;;21.40;39.10;;;;;;5022103;28;88449;-74
2022/04/17 03:58:54;;;;;;;1.73;1.30;;;21.40;39.10;;;;;;5035465;28;89519;-73
2022/04/17 04:01:22;;;;;;;5.30;1.43;;;21.40;39.10;;;;;;5042520;28;90060;-74
2022/04/17 04:03:51;;;;;;;2.23;1.57;;;21.40;39.10;;;;;;5041924;27;88271;-73
2022/04/17 04:06:19;;;;;;;2.07;1.73;;;21.40;39.10;;;;;;5042458;28;88340;-73
2022/04/17 04:08:49;;;;;;;2.33;1.53;;;21.40;39.10;;;;;;5041923;28;89375;-74
2022/04/17 04:11:17;;;;;;;2.90;1.50;;;21.40;39.10;;;;;;5041875;28;90084;-74
2022/04/17 04:13:45;;;;;;;2.00;1.50;;;21.40;39.10;;;;;;5041575;27;88705;-73
2022/04/17 04:16:14;;;;;;;4.37;1.43;;;21.40;39.10;;;;;;5042166;28;88577;-74
2022/04/17 04:18:42;;;;;;;2.33;1.70;;;21.50;39.20;;;;;;5042102;28;90648;-74
2022/04/17 04:21:10;;;;;;;1.13;1.00;;;21.30;39.00;;;;;;5041810;28;90081;-73
2022/04/17 04:23:38;;;;;;;1.80;1.40;;;21.40;39.10;;;;;;5041184;27;88364;-74
2022/04/17 04:26:07;;;;;;;1.90;1.30;;;21.40;39.10;;;;;;5041704;28;88636;-73
2022/04/17 04:28:36;;;;;;;2.73;1.70;;;21.30;39.00;;;;;;5041869;28;93015;-73
2022/04/17 04:31:05;;;;;;;2.97;1.87;;;21.30;39.00;;;;;;5040570;27;88976;-73
2022/04/17 04:33:33;;;;;;;1.77;1.50;;;21.30;39.00;;;;;;5047208;27;88831;-73
2022/04/17 04:36:02;;;;;;;2.73;1.50;;;21.30;39.00;;;;;;5046666;27;88442;-74
2022/04/17 04:38:29;;;;;;;2.10;1.43;;;21.30;39.00;;;;;;5047082;27;90132;-74
2022/04/17 04:40:59;;;;;;;3.93;1.67;;;21.30;39.00;;;;;;5054056;27;90456;-74
2022/04/17 04:43:28;;;;;;;2.13;1.70;;;21.30;39.00;;;;;;5056681;27;89710;-73
2022/04/17 04:46:07;;;;;;;1.30;1.20;;;21.30;39.00;;;;;;5041597;27;88514;-68
2022/04/17 04:51:21;;;;;;;2.60;1.90;;;21.20;39.10;;;;;;5044587;27;88603;-69
2022/04/17 04:53:49;;;;;;;3.47;1.43;;;21.20;39.20;;;;;;5040374;27;88908;-68
2022/04/17 04:56:17;;;;;;;2.17;1.50;;;21.20;39.30;;;;;;5040000;28;88678;-69
2022/04/17 04:58:47;;;;;;;2.77;1.40;;;21.30;39.40;;;;;;5041510;28;89354;-69
2022/04/17 05:01:15;;;;;;;2.60;2.00;;;21.40;39.60;;;;;;5040689;27;92056;-68
2022/04/17 05:03:43;;;;;;;2.07;1.40;;;21.30;39.60;;;;;;5041326;27;88278;-69
2022/04/17 05:06:11;;;;;;;1.83;1.20;;;21.30;39.70;;;;;;5042798;27;88900;-69
2022/04/17 05:08:39;;;;;;;1.80;1.50;;;21.30;39.70;;;;;;5057442;27;90656;-69
2022/04/17 05:11:07;;;;;;;4.47;1.50;;;21.30;39.80;;;;;;5041820;27;90461;-70
2022/04/17 05:13:35;;;;;;;1.73;1.20;;;21.40;39.90;;;;;;5041754;27;88368;-69
2022/04/17 05:16:05;;;;;;;1.40;1.30;;;21.50;40.00;;;;;;5041893;27;88868;-69
2022/04/17 05:18:33;;;;;;;1.70;1.60;;;21.50;40.00;;;;;;5041451;27;89833;-69
2022/04/17 05:21:02;;;;;;;2.37;1.37;;;21.60;40.10;;;;;;5056530;27;89381;-69
2022/04/17 05:23:30;;;;;;;1.20;1.10;;;21.60;40.10;;;;;;5042995;27;88477;-69
2022/04/17 05:25:58;;;;;;;1.43;1.33;;;21.70;40.10;;;;;;5042151;27;88471;-69
2022/04/17 05:28:27;;;;;;;3.13;1.37;;;21.70;40.20;;;;;;5040531;28;90886;-70
2022/04/17 05:30:56;;;;;;;1.33;1.20;;;21.80;40.40;;;;;;5046401;27;90266;-70
2022/04/17 05:33:25;;;;;;;2.00;1.13;;;21.80;40.50;;;;;;5038100;27;88385;-70
2022/04/17 05:35:53;;;;;;;1.73;1.27;;;21.80;40.50;;;;;;5041812;27;88730;-69
2022/04/17 05:38:22;;;;;;;1.43;1.20;;;21.90;40.60;;;;;;5048562;27;88444;-69
2022/04/17 05:40:51;;;;;;;2.33;1.57;;;21.90;40.70;;;;;;5051403;27;89333;-69
2022/04/17 05:43:19;;;;;;;1.93;1.40;;;22.00;40.80;;;;;;5042985;27;88775;-69
2022/04/17 05:45:48;;;;;;;2.37;1.10;;;21.90;40.80;;;;;;5041409;27;88922;-69
2022/04/17 05:48:16;;;;;;;2.17;1.40;;;21.90;40.90;;;;;;5039749;27;90734;-69
2022/04/17 05:50:46;;;;;;;1.47;1.23;;;22.00;41.10;;;;;;5040773;27;89090;-69
2022/04/17 05:53:14;;;;;;;1.83;1.33;;;22.00;41.20;;;;;;5038210;27;88489;-69
2022/04/17 05:55:42;;;;;;;1.83;1.40;;;22.00;41.20;;;;;;5036603;27;88492;-69
2022/04/17 05:58:10;;;;;;;1.30;1.10;;;22.00;41.30;;;;;;5038517;27;90653;-69
2022/04/17 06:00:42;;;;;;;0.97;0.90;;;22.10;41.50;;;;;;5039513;27;89462;-69
2022/04/17 06:03:10;;;;;;;2.40;1.43;;;22.10;41.50;;;;;;5035576;27;88913;-68
2022/04/17 06:05:38;;;;;;;2.20;1.47;;;22.10;41.60;;;;;;5038865;27;88769;-69
2022/04/17 06:08:08;;;;;;;2.27;1.40;;;22.10;41.60;;;;;;5034814;27;89342;-69
2022/04/17 06:10:36;;;;;;;2.00;1.07;;;22.10;41.70;;;;;;5037320;27;90101;-69
2022/04/17 06:13:04;;;;;;;2.43;1.53;;;22.10;41.70;;;;;;5038329;27;88857;-68
2022/04/17 06:15:32;;;;;;;2.90;1.40;;;22.10;41.80;;;;;;5037295;27;89548;-69
2022/04/17 06:18:00;;;;;;;1.57;1.20;;;22.10;41.80;;;;;;5036519;27;90627;-69
2022/04/17 06:20:28;;;;;;;1.50;1.10;;;22.20;42.00;;;;;;5034600;27;89473;-69
2022/04/17 06:22:56;;;;;;;1.50;1.10;;;22.20;42.00;;;;;;5038403;28;88755;-69
2022/04/17 06:25:26;;;;;;;2.37;1.03;;;22.20;42.10;;;;;;5037563;27;88611;-69
2022/04/17 06:27:56;;;;;;;1.10;1.00;;;22.20;42.10;;;;;;5036770;27;89581;-69
2022/04/17 06:30:27;;;;;;;1.73;1.40;;;22.20;42.20;;;;;;5051007;27;89110;-69
2022/04/17 06:32:55;;;;;;;1.20;1.10;;;22.20;42.20;;;;;;5046983;27;88554;-69
2022/04/17 06:35:23;;;;;;;2.17;1.07;;;22.20;42.30;;;;;;5043472;27;88555;-68
2022/04/17 06:37:52;;;;;;;1.20;1.10;;;22.30;42.40;;;;;;5039754;27;89501;-69
2022/04/17 06:40:20;;;;;;;1.57;1.10;;;22.30;42.50;;;;;;5037959;27;88409;-70
2022/04/17 06:42:50;;;;;;;1.40;1.30;;;22.30;42.50;;;;;;5038101;27;88868;-69
2022/04/17 06:45:18;;;;;;;1.60;1.37;;;22.20;42.50;;;;;;5036739;27;88734;-70
2022/04/17 06:47:47;;;;;;;1.20;0.90;;;22.30;42.60;;;;;;5041181;27;91104;-70
2022/04/17 06:50:16;;;;;;;2.60;1.33;;;22.30;42.70;;;;;;5044955;27;89113;-70
2022/04/17 06:52:44;;;;;;;1.53;1.27;;;22.30;42.70;;;;;;5044753;27;88675;-70
2022/04/17 06:55:12;;;;;;;2.33;1.00;;;22.30;42.80;;;;;;5047149;27;89705;-68
2022/04/17 06:57:46;;;;;;;1.67;1.10;;;22.40;43.00;;;;;;5040953;27;90416;-71
2022/04/17 07:00:18;;;;;;;1.27;1.13;;;22.30;42.90;;;;;;5039164;27;93119;-71
2022/04/17 07:02:46;;;;;;;1.53;1.30;;;22.40;43.10;;;;;;5043789;27;90576;-68
2022/04/17 07:05:14;;;;;;;1.00;0.90;;;22.40;43.10;;;;;;5043541;27;88712;-68
2022/04/17 07:07:44;;;;;;;1.70;0.93;;;22.40;43.20;;;;;;5041897;27;90594;-68
2022/04/17 07:10:12;;;;;;;1.13;1.03;;;22.40;43.30;;;;;;5043933;27;89987;-73
2022/04/17 07:12:42;;;;;;;1.50;1.00;;;22.40;43.40;;;;;;5040260;27;90118;-72
2022/04/17 07:15:11;;;;;;;1.10;0.83;;;22.40;43.40;;;;;;5041947;27;88614;-72
2022/04/17 07:17:41;;;;;;;1.33;1.20;;;22.40;43.40;;;;;;5043630;27;92381;-67
2022/04/17 07:20:09;;;;;;;3.20;1.30;;;22.30;43.40;;;;;;5041141;27;90070;-66
2022/04/17 07:22:38;;;;;;;2.47;1.60;;;22.30;43.40;;;;;;5039118;27;89732;-71
2022/04/17 07:25:07;;;;;;;1.63;1.23;;;22.30;43.50;;;;;;5041019;27;88554;-65
2022/04/17 07:27:36;;;;;;;1.73;1.20;;;22.30;43.60;;;;;;5039549;27;90663;-65
2022/04/17 07:30:04;;;;;;;1.90;0.97;;;22.40;43.70;;;;;;5039266;27;89983;-65
2022/04/17 07:32:32;;;;;;;1.43;1.20;;;22.30;43.70;;;;;;5036932;27;90079;-65
2022/04/17 07:35:01;;;;;;;2.50;1.23;;;22.40;43.90;;;;;;5039508;27;89034;-66
2022/04/17 07:37:31;;;;;;;1.57;0.90;;;22.40;43.90;;;;;;5040792;27;92423;-65
2022/04/17 07:39:59;;;;;;;1.23;1.00;;;22.30;43.80;;;;;;5043308;27;88498;-69
2022/04/17 07:42:28;;;;;;;2.57;1.27;;;22.30;43.90;;;;;;5039453;27;88471;-70
2022/04/17 07:44:56;;;;;;;1.97;1.03;;;22.30;43.90;;;;;;5039707;27;90051;-71
2022/04/17 07:47:24;;;;;;;1.47;1.20;;;22.30;43.90;;;;;;5041837;27;89345;-68
2022/04/17 07:49:52;;;;;;;1.67;1.03;;;22.30;43.90;;;;;;5043012;27;90878;-69
2022/04/17 07:52:22;;;;;;;4.40;1.40;;;22.30;43.90;;;;;;5041747;27;88512;-69
2022/04/17 07:54:50;;;;;;;1.20;1.00;;;22.30;43.90;;;;;;5042496;27;88676;-68
2022/04/17 07:57:18;;;;;;;1.27;1.13;;;22.30;43.90;;;;;;5040990;28;90007;-68
2022/04/17 07:59:46;;;;;;;1.53;1.27;;;22.30;43.80;;;;;;5041754;27;90411;-69
2022/04/17 08:02:39;;;;;;;2.37;1.43;;;22.30;43.80;;;;;;5036777;27;89971;-69
2022/04/17 08:05:09;;;;;;;2.10;1.10;;;22.30;43.70;;;;;;5039866;27;88493;-68
2022/04/17 08:07:38;;;;;;;1.13;0.93;;;22.30;43.70;;;;;;5041036;27;90789;-69
2022/04/17 08:10:07;;;;;;;1.33;0.80;;;22.30;43.60;;;;;;5042351;27;88963;-68
2022/04/17 08:12:35;;;;;;;1.53;1.17;;;22.20;43.50;;;;;;5040515;27;88816;-69
2022/04/17 08:15:03;;;;;;;2.23;0.90;;;22.20;43.50;;;;;;5041003;27;88601;-69
2022/04/17 08:17:31;;;;;;;3.00;0.80;;;22.20;43.40;;;;;;5037014;27;90169;-69
2022/04/17 08:19:59;;;;;;;44.20;24.87;;;22.20;43.40;;;;;;5030965;27;92614;-67
2022/04/17 08:22:27;;;;;;;21.30;12.27;;;22.20;43.50;;;;;;5039224;27;91656;-66
2022/04/17 08:24:57;;;;;;;23.33;12.93;;;22.30;43.70;;;;;;5035115;27;89075;-69
2022/04/17 08:27:25;;;;;;;19.10;12.70;;;22.40;43.90;;;;;;5034959;27;90612;-68
2022/04/17 08:29:53;;;;;;;22.57;12.40;;;22.50;44.10;;;;;;5027537;28;89200;-68
2022/04/17 08:32:21;;;;;;;22.40;12.33;;;22.60;44.20;;;;;;5029686;27;88580;-74
2022/04/17 08:34:49;;;;;;;16.37;10.40;;;22.60;44.30;;;;;;5032534;27;90292;-73
2022/04/17 08:37:17;;;;;;;14.90;10.33;;;22.60;44.70;;;;;;5027890;27;89529;-72
2022/04/17 08:39:44;;;;;;;13.87;8.73;;;22.70;44.40;;;;;;5039907;27;89060;-73
2022/04/17 08:42:14;;;;;;;12.53;8.23;;;22.70;44.50;;;;;;5038409;27;88880;-73
2022/04/17 08:44:42;;;;;;;10.40;6.50;;;22.70;44.50;;;;;;5036937;28;88625;-72
2022/04/17 08:47:10;;;;;;;12.27;6.87;;;22.70;44.40;;;;;;5033886;28;89730;-73
2022/04/17 08:49:38;;;;;;;10.53;6.43;;;22.70;44.50;;;;;;5035516;28;88859;-73
2022/04/17 08:52:08;;;;;;;10.53;5.50;;;22.70;45.10;;;;;;5036087;27;88871;-73
2022/04/17 08:54:37;;;;;;;9.73;6.13;;;22.70;44.60;;;;;;5031849;27;88501;-73
2022/04/17 08:57:05;;;;;;;9.47;4.87;;;22.70;44.50;;;;;;5033823;27;89539;-74
2022/04/17 08:59:35;;;;;;;10.33;4.77;;;22.70;44.50;;;;;;5033924;27;90170;-71
2022/04/17 09:02:07;;;;;;;6.90;4.50;;;22.70;44.60;;;;;;5040214;28;88473;-74
2022/04/17 09:04:35;;;;;;;7.33;4.73;;;22.70;44.60;;;;;;5038206;28;88608;-72
2022/04/17 09:07:03;;;;;;;11.73;5.27;;;22.70;44.50;;;;;;5039727;28;90576;-73
2022/04/17 09:09:31;;;;;;;7.13;4.07;;;22.70;44.50;;;;;;5037763;27;90494;-70
2022/04/17 09:11:59;;;;;;;8.23;4.60;;;22.50;44.40;;;;;;5038860;27;88639;-73
2022/04/17 09:14:27;;;;;;;8.23;4.20;;;22.70;44.70;;;;;;5042833;27;88490;-71
2022/04/17 09:16:57;;;;;;;6.13;3.63;;;22.80;44.90;;;;;;5040811;27;89370;-72
2022/04/17 09:19:26;;;;;;;6.80;3.50;;;22.80;44.90;;;;;;5038724;27;89575;-71
2022/04/17 09:21:55;;;;;;;11.13;4.03;;;22.80;44.90;;;;;;5039628;27;89188;-70
2022/04/17 09:24:24;;;;;;;6.30;3.27;;;22.80;45.00;;;;;;5038709;27;89566;-71
2022/04/17 09:26:53;;;;;;;4.73;3.43;;;22.80;45.00;;;;;;5038209;27;92693;-72
2022/04/17 09:29:23;;;;;;;5.00;2.53;;;22.80;45.00;;;;;;5033178;27;92747;-71
2022/04/17 09:31:59;;;;;;;7.50;3.87;;;22.80;45.00;;;;;;5042600;27;88875;-71
2022/04/17 09:34:27;;;;;;;4.00;2.77;;;22.80;44.90;;;;;;5041557;27;88670;-71
2022/04/17 09:36:59;;;;;;;6.53;3.00;;;22.80;44.90;;;;;;5048764;27;90656;-71
2022/04/17 09:39:32;;;;;;;7.00;2.47;;;22.80;44.90;;;;;;5037846;27;90196;-71
2022/04/17 09:42:02;;;;;;;2.10;1.90;;;22.70;44.40;;;;;;5030209;27;88733;-71
2022/04/17 09:44:37;;;;;;;4.90;1.90;;;22.70;43.80;;;;;;5037492;27;89512;-69
2022/04/17 09:47:09;;;;;;;13.07;2.00;;;22.50;43.40;;;;;;5042385;27;91471;-68
2022/04/17 09:49:57;;;;;;;1.97;1.87;;;22.50;43.20;;;;;;5042071;27;90127;-68
2022/04/17 09:52:27;;;;;;;1.90;1.30;;;22.40;42.40;;;;;;5042317;27;89199;-68
2022/04/17 09:54:55;;;;;;;2.17;1.60;;;22.30;41.80;;;;;;5040066;27;88434;-68
2022/04/17 09:57:30;;;;;;;1.73;1.27;;;22.20;41.30;;;;;;5041453;27;91345;-68
2022/04/17 09:59:58;;;;;;;1.20;1.10;;;22.20;41.00;;;;;;5037909;27;92787;-69
2022/04/17 10:02:27;;;;;;;5.60;2.10;;;22.10;40.60;;;;;;5040808;27;88938;-69
2022/04/17 10:04:55;;;;;;;1.20;1.07;;;22.10;40.30;;;;;;5035234;27;88532;-69
2022/04/17 10:07:23;;;;;;;3.00;1.50;;;22.20;40.20;;;;;;5036994;27;89707;-69
2022/04/17 10:09:51;;;;;;;2.73;1.60;;;22.20;40.00;;;;;;5036891;27;89175;-70
2022/04/17 10:12:20;;;;;;;1.53;1.43;;;22.10;39.30;;;;;;5036485;27;88660;-70
2022/04/17 10:14:49;;;;;;;2.97;1.43;;;22.00;38.90;;;;;;5037747;28;88540;-70
2022/04/17 10:17:19;;;;;;;2.70;1.53;;;21.90;38.50;;;;;;5037436;28;90731;-70
2022/04/17 10:19:49;;;;;;;1.23;1.03;;;21.90;38.40;;;;;;5037565;27;89995;-70
2022/04/17 10:22:18;;;;;;;2.30;1.50;;;21.90;38.20;;;;;;5041139;27;88601;-70
2022/04/17 10:24:51;;;;;;;3.83;1.80;;;22.00;38.20;;;;;;5034386;28;90217;-70
2022/04/17 10:27:22;;;;;;;2.13;1.70;;;22.00;37.80;;;;;;5027900;28;92187;-70
2022/04/17 10:29:53;;;;;;;2.00;1.40;;;21.90;37.40;;;;;;5042097;28;92647;-70
2022/04/17 10:32:54;;;;;;;2.33;1.60;;;21.90;37.30;;;;;;5043836;28;88423;-71
2022/04/17 10:35:27;;;;;;;10.93;1.93;;;21.70;36.60;;;;;;5042881;27;88632;-70
2022/04/17 10:38:19;;;;;;;3.70;1.90;;;21.60;36.30;;;;;;5042770;28;90131;-70
2022/04/17 10:41:00;;;;;;;1.70;1.60;;;21.40;36.10;;;;;;5043710;28;90366;-69
2022/04/17 10:43:35;;;;;;;4.60;1.77;;;21.40;36.00;;;;;;5042921;28;88727;-71
2022/04/17 10:46:13;;;;;;;2.03;1.50;;;21.30;35.60;;;;;;5042834;27;88630;-71
2022/04/17 10:48:47;;;;;;;1.90;1.60;;;21.20;35.30;;;;;;5042824;27;92098;-71
2022/04/17 10:51:20;;;;;;;2.43;1.83;;;21.10;35.10;;;;;;5042864;27;88807;-70
2022/04/17 10:53:52;;;;;;;2.45;2.25;;;21.10;35.00;;;;;;5038634;27;88810;-72
2022/04/17 10:56:20;;;;;;;2.33;1.70;;;21.10;34.70;;;;;;5042188;27;88581;-71
2022/04/17 10:58:52;;;;;;;2.47;1.90;;;21.10;34.60;;;;;;5042854;27;90693;-71
2022/04/17 11:01:52;;;;;;;3.10;2.10;;;21.20;34.70;;;;;;5048829;27;90546;-72
2022/04/17 11:04:22;;;;;;;1.93;1.70;;;21.20;34.60;;;;;;5048497;27;90983;-71
2022/04/17 11:07:15;;;;;;;1.73;1.40;;;21.20;34.40;;;;;;5047727;27;88505;-71
2022/04/17 11:09:46;;;;;;;1.67;1.57;;;21.20;34.30;;;;;;5038375;27;91734;-72
2022/04/17 11:12:26;;;;;;;2.20;2.00;;;21.30;34.20;;;;;;5045256;27;94108;-72
2022/04/17 11:14:55;;;;;;;3.97;2.80;;;21.30;34.10;;;;;;5042663;27;95732;-71
2022/04/17 11:17:23;;;;;;;4.53;3.87;;;21.40;34.00;;;;;;5040373;27;92013;-72
2022/04/17 11:19:53;;;;;;;5.33;4.00;;;21.50;34.00;;;;;;5040145;28;92115;-72
2022/04/17 11:22:26;;;;;;;7.57;5.00;;;21.50;34.20;;;;;;5039282;27;95139;-71
2022/04/17 11:25:06;;;;;;;8.53;5.40;;;21.50;33.60;;;;;;5039370;28;95838;-72
2022/04/17 11:27:41;;;;;;;7.60;6.33;;;21.60;33.70;;;;;;5040738;28;92058;-72
2022/04/17 11:30:35;;;;;;;12.30;6.70;;;21.60;33.50;;;;;;5039832;28;92071;-72
2022/04/17 11:33:05;;;;;;;10.30;7.30;;;21.60;34.20;;;;;;5038121;27;94189;-71
2022/04/17 11:35:33;;;;;;;10.23;6.80;;;21.70;33.60;;;;;;5039332;27;93806;-72
2022/04/17 11:38:04;;;;;;;11.70;6.30;;;21.70;33.60;;;;;;5046654;27;92475;-72
2022/04/17 11:40:36;;;;;;;9.90;6.50;;;21.70;33.50;;;;;;5034780;27;91329;-72
2022/04/17 11:43:09;;;;;;;9.60;6.60;;;21.70;33.60;;;;;;5051007;27;93274;-71
2022/04/17 11:45:38;;;;;;;6.63;5.27;;;21.80;33.60;;;;;;5052054;27;94043;-72
2022/04/17 11:48:08;;;;;;;8.57;5.27;;;21.80;33.60;;;;;;5049770;27;92843;-71
2022/04/17 11:50:36;;;;;;;10.47;5.87;;;21.80;33.70;;;;;;5043974;27;92138;-72
2022/04/17 11:53:06;;;;;;;6.47;4.70;;;21.90;33.80;;;;;;5043005;27;94166;-71
2022/04/17 11:55:35;;;;;;;8.07;5.43;;;21.90;33.70;;;;;;5047233;27;94523;-71
2022/04/17 11:58:03;;;;;;;6.70;4.03;;;21.90;33.70;;;;;;5045999;27;92157;-72
2022/04/17 12:00:32;;;;;;;4.70;3.40;;;21.90;33.70;;;;;;5035552;27;92095;-71
2022/04/17 12:03:01;;;;;;;6.23;3.67;;;22.00;33.70;;;;;;5046972;27;95912;-71
2022/04/17 12:05:30;;;;;;;4.13;2.47;;;21.90;33.50;;;;;;5049150;27;92540;-71
2022/04/17 12:08:06;;;;;;;3.73;2.33;;;22.00;33.50;;;;;;5042363;27;92059;-71
2022/04/17 12:10:38;;;;;;;4.63;1.97;;;21.90;33.40;;;;;;5046633;27;92011;-71
2022/04/17 12:13:16;;;;;;;6.37;2.60;;;21.90;33.40;;;;;;5045200;27;94096;-71
2022/04/17 12:15:45;;;;;;;1.77;1.67;;;21.90;33.40;;;;;;5049387;27;94469;-72
2022/04/17 12:18:17;;;;;;;2.33;1.93;;;21.90;33.50;;;;;;5045948;27;92051;-71
2022/04/17 12:20:53;;;;;;;2.10;1.90;;;22.00;33.60;;;;;;5042188;27;92043;-71
2022/04/17 12:23:25;;;;;;;2.13;1.97;;;22.00;33.60;;;;;;5036728;27;92542;-72
2022/04/17 12:25:55;;;;;;;3.03;2.00;;;22.10;33.70;;;;;;5039337;27;94196;-72
2022/04/17 12:28:24;;;;;;;5.00;2.10;;;22.10;33.70;;;;;;5038315;27;92039;-71
2022/04/17 12:30:54;;;;;;;1.87;1.60;;;22.10;33.70;;;;;;5048497;27;91488;-72
2022/04/17 12:33:23;;;;;;;2.60;1.90;;;22.10;33.60;;;;;;5048397;27;93201;-72
2022/04/17 12:36:05;;;;;;;3.00;1.93;;;22.10;33.60;;;;;;5048213;27;93724;-72
2022/04/17 12:38:33;;;;;;;1.83;1.70;;;22.10;33.50;;;;;;5044861;27;93018;-71
2022/04/17 12:41:02;;;;;;;1.90;1.70;;;22.10;33.40;;;;;;5036975;28;91951;-71
2022/04/17 12:43:31;;;;;;;1.77;1.57;;;22.10;33.40;;;;;;5045381;27;92785;-72
2022/04/17 12:46:03;;;;;;;2.93;1.67;;;22.10;33.30;;;;;;5037779;27;94166;-71
2022/04/17 12:48:32;;;;;;;1.23;1.13;;;22.10;33.40;;;;;;5039996;27;92147;-72
2022/04/17 12:51:02;;;;;;;1.60;1.50;;;22.10;33.40;;;;;;5035483;28;92165;-72
2022/04/17 12:53:35;;;;;;;1.67;1.57;;;22.20;33.40;;;;;;5045190;27;93647;-71
2022/04/17 12:56:05;;;;;;;2.03;1.70;;;22.20;33.30;;;;;;5040475;27;94163;-71
2022/04/17 12:58:50;;;;;;;1.67;1.50;;;22.10;33.20;;;;;;5036449;28;91946;-71
2022/04/17 13:01:20;;;;;;;2.33;1.30;;;22.10;33.10;;;;;;5044832;27;92601;-71
2022/04/17 13:04:10;;;;;;;1.30;1.13;;;22.20;33.20;;;;;;5034385;28;95054;-71
2022/04/17 13:06:38;;;;;;;1.60;1.50;;;22.20;33.20;;;;;;5045758;27;94782;-72
2022/04/17 13:09:07;;;;;;;1.53;1.43;;;22.20;33.10;;;;;;5044755;27;92753;-72
2022/04/17 13:11:37;;;;;;;2.40;1.40;;;22.20;33.00;;;;;;5046753;27;92067;-71